Time;durP1;ratioP1;P1;durP2;ratioP2;P2;SDS_P1;SDS_P2;PMS_P1;PMS_P2;Temp;Humidity;BMP_temperature;BMP_pressure;BME280_temperature;BME280_humidity;BME280_pressure;Samples;Min_cycle;Max_cycle;Signal;HPM_P1;HPM_P2
2020/12/08 00:02:11;;;;;;;7.73;7.17;;;19.30;23.70;;;;;;5094484;28;20184;-52
2020/12/08 00:04:41;;;;;;;6.80;6.40;;;19.40;23.80;;;;;;5093845;28;20227;-52
2020/12/08 00:07:10;;;;;;;6.43;6.13;;;19.30;23.70;;;;;;5094265;28;20154;-52
2020/12/08 00:09:37;;;;;;;6.93;6.53;;;19.30;23.70;;;;;;5094196;28;20185;-52
2020/12/08 00:12:03;;;;;;;6.80;6.40;;;19.30;23.70;;;;;;5094384;28;20651;-52
2020/12/08 00:14:29;;;;;;;7.43;7.03;;;19.30;24.20;;;;;;5094151;28;20533;-52
2020/12/08 00:16:54;;;;;;;7.53;7.03;;;19.40;23.80;;;;;;5094076;28;20154;-52
2020/12/08 00:19:20;;;;;;;6.90;6.50;;;19.30;23.70;;;;;;5093997;28;20208;-51
2020/12/08 00:21:46;;;;;;;7.10;6.70;;;19.40;23.80;;;;;;5093544;28;20162;-52
2020/12/08 00:24:13;;;;;;;7.50;7.00;;;19.30;23.70;;;;;;5094222;28;20191;-53
2020/12/08 00:26:40;;;;;;;6.70;6.30;;;19.30;23.70;;;;;;5093971;28;20193;-52
2020/12/08 00:29:06;;;;;;;7.75;7.35;;;19.30;23.70;;;;;;5094122;28;20154;-53
2020/12/08 00:31:32;;;;;;;7.63;7.07;;;19.30;23.70;;;;;;5093932;28;20169;-52
2020/12/08 00:33:58;;;;;;;7.20;6.80;;;19.30;23.70;;;;;;5093889;28;20158;-51
2020/12/08 00:36:24;;;;;;;7.20;6.90;;;19.30;23.70;;;;;;5093437;28;20153;-53
2020/12/08 00:38:51;;;;;;;7.10;6.70;;;19.30;23.70;;;;;;5093856;28;20146;-52
2020/12/08 00:41:18;;;;;;;7.10;6.70;;;19.30;23.70;;;;;;5093764;28;20189;-52
2020/12/08 00:43:44;;;;;;;7.20;6.80;;;19.30;23.70;;;;;;5093718;28;20181;-52
2020/12/08 00:46:11;;;;;;;7.55;7.15;;;19.30;23.70;;;;;;5093586;28;20236;-52
2020/12/08 00:48:40;;;;;;;7.47;7.03;;;19.30;23.70;;;;;;5093712;28;20156;-52
2020/12/08 00:51:07;;;;;;;7.50;7.00;;;19.30;23.70;;;;;;5093196;28;20154;-52
2020/12/08 00:53:33;;;;;;;8.07;7.68;;;19.30;23.70;;;;;;5093761;28;20166;-52
2020/12/08 00:55:59;;;;;;;7.57;7.07;;;19.30;23.70;;;;;;5094146;28;20181;-52
2020/12/08 00:58:25;;;;;;;7.70;7.30;;;19.30;23.70;;;;;;5093634;28;20300;-52
2020/12/08 01:00:51;;;;;;;8.20;7.70;;;19.30;23.70;;;;;;5093439;28;20226;-52
2020/12/08 01:03:17;;;;;;;8.23;7.80;;;19.30;23.70;;;;;;5075418;28;20225;-51
2020/12/08 01:05:43;;;;;;;8.27;7.87;;;19.30;23.70;;;;;;5093119;28;20536;-51
2020/12/08 01:08:09;;;;;;;7.45;7.15;;;19.30;23.70;;;;;;5093946;28;20711;-51
2020/12/08 01:10:34;;;;;;;6.97;6.60;;;19.30;23.70;;;;;;5093480;28;20594;-51
2020/12/08 01:13:00;;;;;;;8.47;8.00;;;19.30;23.70;;;;;;5097154;28;20656;-52
2020/12/08 01:15:26;;;;;;;7.87;7.37;;;19.30;23.70;;;;;;5097606;28;20162;-52
2020/12/08 01:17:51;;;;;;;8.03;7.67;;;19.30;23.70;;;;;;5097652;28;20521;-52
2020/12/08 01:20:17;;;;;;;8.20;7.80;;;19.30;23.70;;;;;;5096737;28;20661;-57
2020/12/08 01:22:43;;;;;;;8.43;8.03;;;19.30;23.70;;;;;;5097595;28;20486;-52
2020/12/08 01:25:09;;;;;;;8.00;7.60;;;19.30;23.70;;;;;;5097310;28;20199;-52
2020/12/08 01:27:35;;;;;;;8.30;7.87;;;19.30;23.70;;;;;;5097604;28;20154;-52
2020/12/08 01:30:00;;;;;;;7.80;7.45;;;19.30;23.70;;;;;;5097112;28;20399;-52
2020/12/08 01:32:26;;;;;;;7.83;7.53;;;19.30;23.70;;;;;;5097146;28;20162;-52
2020/12/08 01:34:52;;;;;;;8.10;7.70;;;19.30;23.70;;;;;;5096747;28;20223;-51
2020/12/08 01:37:17;;;;;;;8.77;8.27;;;19.30;23.70;;;;;;5079478;28;20558;-52
2020/12/08 01:39:43;;;;;;;8.87;8.43;;;19.30;23.70;;;;;;5096979;28;20189;-52
2020/12/08 01:42:09;;;;;;;7.80;7.40;;;19.30;23.70;;;;;;5097170;28;20521;-51
2020/12/08 01:44:35;;;;;;;8.25;7.75;;;19.30;23.70;;;;;;5097105;28;20227;-51
2020/12/08 01:47:02;;;;;;;8.67;8.17;;;19.30;23.70;;;;;;5097213;28;20597;-51
2020/12/08 01:49:28;;;;;;;9.00;8.50;;;19.30;23.70;;;;;;5096866;28;20404;-52
2020/12/08 01:51:54;;;;;;;8.10;7.80;;;19.30;23.70;;;;;;5096488;28;20628;-52
2020/12/08 01:54:20;;;;;;;8.53;8.13;;;19.30;23.70;;;;;;5096895;28;20158;-51
2020/12/08 01:56:46;;;;;;;7.93;7.53;;;19.30;23.70;;;;;;5096803;28;20860;-51
2020/12/08 01:59:12;;;;;;;8.55;8.15;;;19.30;23.70;;;;;;5096726;28;20640;-52
2020/12/08 02:01:37;;;;;;;8.40;8.00;;;19.30;23.70;;;;;;5096605;28;20196;-51
2020/12/08 02:04:05;;;;;;;8.20;7.80;;;19.30;23.70;;;;;;5078504;28;20252;-53
2020/12/08 02:06:30;;;;;;;8.77;8.38;;;19.20;23.70;;;;;;5096176;28;20865;-52
2020/12/08 02:08:57;;;;;;;8.87;8.47;;;19.20;23.60;;;;;;5096609;28;20227;-52
2020/12/08 02:11:23;;;;;;;7.68;7.38;;;19.30;23.70;;;;;;5078235;28;20176;-52
2020/12/08 02:13:48;;;;;;;7.83;7.50;;;19.30;23.70;;;;;;5096682;28;20157;-52
2020/12/08 02:16:15;;;;;;;8.20;7.77;;;19.30;23.70;;;;;;5096246;28;20162;-52
2020/12/08 02:18:41;;;;;;;8.27;7.97;;;18.60;23.30;;;;;;5096426;28;20196;-52
2020/12/08 02:21:06;;;;;;;8.80;8.30;;;19.30;23.70;;;;;;5095771;28;20197;-52
2020/12/08 02:23:32;;;;;;;8.83;8.40;;;19.30;23.70;;;;;;5096021;28;20188;-52
2020/12/08 02:26:00;;;;;;;9.23;8.73;;;19.20;23.70;;;;;;5096507;28;20375;-51
2020/12/08 02:28:27;;;;;;;8.73;8.32;;;19.20;23.60;;;;;;5096439;28;20920;-52
2020/12/08 02:30:53;;;;;;;8.98;8.50;;;19.30;23.70;;;;;;5095926;28;20180;-52
2020/12/08 02:33:27;;;;;;;8.83;8.43;;;19.30;23.70;;;;;;5096279;28;20240;-52
2020/12/08 02:35:56;;;;;;;8.13;7.82;;;19.30;23.70;;;;;;5095636;28;20421;-52
2020/12/08 02:38:23;;;;;;;8.82;8.43;;;19.20;23.60;;;;;;5096162;28;20199;-52
2020/12/08 02:40:48;;;;;;;9.07;8.57;;;19.20;23.60;;;;;;5077836;28;20186;-52
2020/12/08 02:43:14;;;;;;;8.87;8.47;;;19.20;23.60;;;;;;5095935;28;20150;-52
2020/12/08 02:45:41;;;;;;;8.90;8.50;;;19.20;23.60;;;;;;5095765;28;20154;-52
2020/12/08 02:48:06;;;;;;;8.90;8.45;;;19.20;23.60;;;;;;5077839;28;20166;-52
2020/12/08 02:50:32;;;;;;;8.93;8.53;;;19.20;23.70;;;;;;5095132;28;20177;-52
2020/12/08 02:52:58;;;;;;;8.83;8.50;;;19.20;23.60;;;;;;5077721;28;20430;-52
2020/12/08 02:55:23;;;;;;;9.27;8.87;;;19.20;23.70;;;;;;5095635;28;20483;-53
2020/12/08 02:57:49;;;;;;;8.13;7.73;;;19.20;23.60;;;;;;5095582;28;20166;-51
2020/12/08 03:00:15;;;;;;;10.00;9.30;;;19.20;23.60;;;;;;5095208;28;20281;-51
2020/12/08 03:02:40;;;;;;;9.80;9.30;;;19.20;23.60;;;;;;5095503;28;20237;-52
2020/12/08 03:05:06;;;;;;;8.80;8.40;;;19.20;23.60;;;;;;5095018;28;20182;-52
2020/12/08 03:07:32;;;;;;;8.90;8.50;;;19.20;23.70;;;;;;5095556;28;20192;-53
2020/12/08 03:09:58;;;;;;;9.17;8.77;;;19.20;23.70;;;;;;5095394;28;20162;-52
2020/12/08 03:12:24;;;;;;;8.75;8.25;;;19.20;23.60;;;;;;5095361;28;20408;-52
2020/12/08 03:14:50;;;;;;;8.40;8.00;;;19.20;23.60;;;;;;5095293;28;20574;-52
2020/12/08 03:17:15;;;;;;;9.63;9.13;;;19.20;23.60;;;;;;5095388;28;20635;-53
2020/12/08 03:19:41;;;;;;;10.33;9.73;;;19.20;23.60;;;;;;5094751;28;20521;-53
2020/12/08 03:22:07;;;;;;;9.00;8.50;;;19.20;23.60;;;;;;5095219;28;20244;-53
2020/12/08 03:24:33;;;;;;;8.70;8.30;;;19.20;23.70;;;;;;5094976;28;20250;-53
2020/12/08 03:26:58;;;;;;;9.47;8.97;;;19.20;23.60;;;;;;5095143;28;20404;-53
2020/12/08 03:29:24;;;;;;;9.10;8.70;;;19.20;23.60;;;;;;5094941;28;20269;-53
2020/12/08 03:31:49;;;;;;;9.43;9.00;;;19.20;23.60;;;;;;5094790;28;20181;-53
2020/12/08 03:34:15;;;;;;;9.00;8.60;;;19.20;23.60;;;;;;5094075;28;20177;-51
2020/12/08 03:36:41;;;;;;;9.00;8.60;;;19.20;23.70;;;;;;5094401;28;20203;-53
2020/12/08 03:39:07;;;;;;;9.67;9.23;;;19.20;23.70;;;;;;5094832;28;20903;-52
2020/12/08 03:41:32;;;;;;;9.60;9.00;;;19.10;23.60;;;;;;5094718;28;20505;-52
2020/12/08 03:43:58;;;;;;;10.27;9.77;;;19.20;23.60;;;;;;5094711;28;20170;-53
2020/12/08 03:46:25;;;;;;;9.10;8.70;;;19.20;23.70;;;;;;5094635;28;20161;-52
2020/12/08 03:48:55;;;;;;;9.43;9.00;;;19.10;23.60;;;;;;5094722;28;20170;-52
2020/12/08 03:51:22;;;;;;;9.40;9.00;;;19.20;23.60;;;;;;5093902;28;20162;-52
2020/12/08 03:53:48;;;;;;;9.75;9.32;;;19.10;23.60;;;;;;5094900;28;20172;-52
2020/12/08 03:56:18;;;;;;;9.30;8.80;;;19.20;23.60;;;;;;5094294;28;20177;-52
2020/12/08 03:58:47;;;;;;;9.10;8.70;;;19.20;23.60;;;;;;5094394;28;20158;-51
2020/12/08 04:01:18;;;;;;;9.18;8.77;;;19.20;23.60;;;;;;5094464;28;20190;-52
2020/12/08 04:03:44;;;;;;;9.48;9.07;;;19.10;23.60;;;;;;5094335;28;20696;-52
2020/12/08 04:06:12;;;;;;;8.95;8.65;;;19.20;23.70;;;;;;5075606;28;20178;-52
2020/12/08 04:08:42;;;;;;;9.07;8.63;;;19.20;23.70;;;;;;5094104;28;20138;-52
2020/12/08 04:11:08;;;;;;;9.80;9.40;;;19.20;23.60;;;;;;5094671;28;20161;-52
2020/12/08 04:13:34;;;;;;;10.45;9.85;;;19.10;23.60;;;;;;5094278;28;20158;-52
2020/12/08 04:16:00;;;;;;;9.47;8.97;;;19.20;23.60;;;;;;5094212;28;20157;-52
2020/12/08 04:18:26;;;;;;;9.80;9.30;;;19.20;23.60;;;;;;5094144;28;20517;-52
2020/12/08 04:20:52;;;;;;;8.90;8.50;;;19.20;23.60;;;;;;5093521;28;20641;-51
2020/12/08 04:23:19;;;;;;;8.70;8.30;;;19.10;23.60;;;;;;5094140;28;20150;-51
2020/12/08 04:25:45;;;;;;;9.18;8.77;;;19.20;23.70;;;;;;5094061;28;20150;-51
2020/12/08 04:28:11;;;;;;;9.57;9.10;;;19.20;23.60;;;;;;5094041;28;20605;-51
2020/12/08 04:30:40;;;;;;;10.20;9.70;;;19.20;23.60;;;;;;5093834;28;20227;-51
2020/12/08 04:33:06;;;;;;;9.65;9.25;;;19.20;23.60;;;;;;5094227;28;20437;-51
2020/12/08 04:35:32;;;;;;;8.90;8.50;;;19.20;23.70;;;;;;5075162;28;20174;-52
2020/12/08 04:37:58;;;;;;;9.20;8.80;;;19.20;23.60;;;;;;5093894;28;20197;-52
2020/12/08 04:40:24;;;;;;;9.00;8.60;;;19.20;23.60;;;;;;5093533;28;20185;-52
2020/12/08 04:42:54;;;;;;;9.45;9.05;;;19.20;23.60;;;;;;5093898;28;20407;-53
2020/12/08 04:45:20;;;;;;;9.35;8.90;;;19.10;23.60;;;;;;5093758;28;20158;-52
2020/12/08 04:47:46;;;;;;;9.30;8.90;;;19.20;23.70;;;;;;5093768;28;20238;-51
2020/12/08 04:50:14;;;;;;;9.52;9.13;;;19.20;23.70;;;;;;5093085;28;20185;-52
2020/12/08 04:52:41;;;;;;;10.38;9.77;;;19.20;23.70;;;;;;5093778;28;20640;-52
2020/12/08 04:55:07;;;;;;;9.30;8.88;;;19.20;23.60;;;;;;5093538;28;20253;-53
2020/12/08 04:57:33;;;;;;;9.50;9.00;;;19.20;23.60;;;;;;5093631;28;20196;-53
2020/12/08 05:00:08;;;;;;;9.67;9.27;;;19.20;23.70;;;;;;5093551;28;20221;-53
2020/12/08 05:02:48;;;;;;;10.23;9.73;;;19.10;23.60;;;;;;5093506;28;20150;-53
2020/12/08 05:05:15;;;;;;;9.98;9.48;;;19.20;23.60;;;;;;5093206;28;20181;-52
2020/12/08 05:07:41;;;;;;;9.55;9.15;;;19.20;23.60;;;;;;5093694;28;20181;-52
2020/12/08 05:10:08;;;;;;;9.43;9.03;;;19.20;23.70;;;;;;5093330;28;20193;-52
2020/12/08 05:12:34;;;;;;;9.25;8.80;;;19.20;23.60;;;;;;5093575;28;20415;-52
2020/12/08 05:14:59;;;;;;;10.27;9.77;;;19.20;23.60;;;;;;5093504;28;20158;-52
2020/12/08 05:17:26;;;;;;;9.30;8.90;;;19.20;23.60;;;;;;5093446;28;20415;-52
2020/12/08 05:20:03;;;;;;;10.43;9.98;;;19.20;23.60;;;;;;5093108;28;20209;-53
2020/12/08 05:22:29;;;;;;;9.75;9.35;;;19.20;23.60;;;;;;5093286;28;20177;-52
2020/12/08 05:25:05;;;;;;;9.60;9.20;;;19.20;23.70;;;;;;5093297;28;20598;-52
2020/12/08 05:27:31;;;;;;;9.50;9.02;;;19.20;23.70;;;;;;5093365;28;20482;-52
2020/12/08 05:30:06;;;;;;;10.03;9.63;;;19.20;23.60;;;;;;5093213;28;20169;-51
2020/12/08 05:32:37;;;;;;;9.75;9.35;;;19.20;23.70;;;;;;5093596;28;20149;-52
2020/12/08 05:35:13;;;;;;;9.30;8.82;;;19.20;23.60;;;;;;5092753;28;20154;-53
2020/12/08 05:37:47;;;;;;;9.10;8.73;;;19.20;23.60;;;;;;5093330;28;20180;-52
2020/12/08 05:40:18;;;;;;;9.40;9.00;;;19.20;23.60;;;;;;5092904;28;20188;-53
2020/12/08 05:42:46;;;;;;;8.77;8.38;;;19.20;23.60;;;;;;5093230;28;20536;-51
2020/12/08 05:45:14;;;;;;;9.60;9.10;;;19.20;23.60;;;;;;5093129;28;20154;-51
2020/12/08 05:47:49;;;;;;;9.55;9.15;;;19.20;23.60;;;;;;5093052;28;20154;-51
2020/12/08 05:50:16;;;;;;;8.93;8.52;;;19.20;23.60;;;;;;5092569;28;20188;-52
2020/12/08 05:53:04;;;;;;;9.60;9.20;;;19.20;23.60;;;;;;5093073;28;20157;-52
2020/12/08 05:55:31;;;;;;;9.25;8.85;;;19.30;23.70;;;;;;5093065;28;20245;-52
2020/12/08 05:58:08;;;;;;;10.10;9.60;;;19.20;23.60;;;;;;5076574;28;20162;-52
2020/12/08 06:00:34;;;;;;;8.48;8.18;;;19.30;23.70;;;;;;5096770;28;20189;-52
2020/12/08 06:03:14;;;;;;;8.88;8.48;;;19.30;23.70;;;;;;5096542;28;20205;-52
2020/12/08 06:05:46;;;;;;;10.02;9.52;;;19.20;23.60;;;;;;5096076;28;20561;-51
2020/12/08 06:08:21;;;;;;;9.55;9.15;;;19.20;23.60;;;;;;5096578;28;20233;-52
2020/12/08 06:10:49;;;;;;;8.98;8.57;;;19.30;23.70;;;;;;5096488;28;20156;-52
2020/12/08 06:13:26;;;;;;;9.05;8.65;;;19.30;23.70;;;;;;5096639;28;20182;-52
2020/12/08 06:15:52;;;;;;;9.57;9.18;;;19.20;23.60;;;;;;5078302;28;20167;-53
2020/12/08 06:18:31;;;;;;;9.15;8.75;;;19.20;23.60;;;;;;5096271;28;20158;-52
2020/12/08 06:20:57;;;;;;;9.25;8.85;;;19.30;23.70;;;;;;5095952;28;20185;-55
2020/12/08 06:23:23;;;;;;;9.30;8.90;;;19.20;23.60;;;;;;5096041;28;20150;-52
2020/12/08 06:26:03;;;;;;;9.17;8.73;;;19.30;23.70;;;;;;5095863;28;20372;-51
2020/12/08 06:28:29;;;;;;;9.52;9.13;;;19.20;23.60;;;;;;5096322;28;20165;-52
2020/12/08 06:31:06;;;;;;;9.20;8.80;;;19.30;23.70;;;;;;5095574;28;20186;-52
2020/12/08 06:33:44;;;;;;;9.95;9.45;;;19.30;23.70;;;;;;5095982;28;20158;-52
2020/12/08 06:36:10;;;;;;;9.65;9.15;;;19.30;23.70;;;;;;5079054;28;20201;-51
2020/12/08 06:38:36;;;;;;;8.90;8.50;;;19.30;23.70;;;;;;5095651;28;20633;-53
2020/12/08 06:41:01;;;;;;;9.00;8.60;;;19.30;23.70;;;;;;5095698;28;20532;-52
2020/12/08 06:43:27;;;;;;;10.27;9.87;;;19.30;23.70;;;;;;5095815;28;20155;-52
2020/12/08 06:45:52;;;;;;;8.93;8.53;;;19.30;23.70;;;;;;5095682;28;20158;-53
2020/12/08 06:48:20;;;;;;;9.00;8.60;;;19.30;23.70;;;;;;5095658;28;20153;-52
2020/12/08 06:50:47;;;;;;;9.40;9.00;;;19.30;23.70;;;;;;5095051;28;20188;-52
2020/12/08 06:53:14;;;;;;;9.23;8.73;;;19.30;23.70;;;;;;5095478;28;20150;-53
2020/12/08 06:55:50;;;;;;;9.35;8.90;;;19.30;23.70;;;;;;5095093;28;20268;-53
2020/12/08 06:58:17;;;;;;;9.20;8.80;;;19.30;23.70;;;;;;5095390;28;20149;-53
2020/12/08 07:00:45;;;;;;;9.23;8.82;;;19.30;23.70;;;;;;5095256;28;20644;-52
2020/12/08 07:03:11;;;;;;;8.88;8.48;;;19.30;23.70;;;;;;5095174;28;20687;-52
2020/12/08 07:05:37;;;;;;;8.98;8.57;;;19.30;23.70;;;;;;5094509;28;20173;-53
2020/12/08 07:08:05;;;;;;;9.25;8.75;;;19.30;23.70;;;;;;5095168;28;20219;-52
2020/12/08 07:10:41;;;;;;;8.98;8.57;;;19.30;23.70;;;;;;5093848;28;20158;-53
2020/12/08 07:13:15;;;;;;;9.07;8.68;;;19.30;23.70;;;;;;5076842;28;20172;-53
2020/12/08 07:15:42;;;;;;;8.98;8.48;;;19.30;23.70;;;;;;5094560;28;20173;-58
2020/12/08 07:18:10;;;;;;;23.63;21.42;;;17.50;13.90;;;;;;5079779;28;20202;-48
2020/12/08 07:20:39;;;;;;;22.92;20.60;;;17.30;14.40;;;;;;5083428;28;20215;-53
2020/12/08 07:23:06;;;;;;;23.00;20.80;;;14.70;16.30;;;;;;5092975;28;20202;-52
2020/12/08 07:25:33;;;;;;;22.20;20.00;;;12.70;18.80;;;;;;5075112;28;20447;-56
2020/12/08 07:28:00;;;;;;;18.20;16.40;;;11.30;22.10;;;;;;5092928;28;20423;-56
2020/12/08 07:30:28;;;;;;;16.80;15.30;;;11.20;26.50;;;;;;5093375;28;20191;-57
2020/12/08 07:32:55;;;;;;;15.10;13.70;;;11.70;28.80;;;;;;5094277;28;20154;-56
2020/12/08 07:35:25;;;;;;;15.80;14.20;;;12.40;28.90;;;;;;5093391;28;20166;-55
2020/12/08 07:37:58;;;;;;;14.88;13.57;;;13.10;28.00;;;;;;5094238;28;20158;-53
2020/12/08 07:40:50;;;;;;;18.65;15.63;;;13.70;26.80;;;;;;5074663;28;20583;-53
2020/12/08 07:43:16;;;;;;;14.80;13.50;;;14.30;25.40;;;;;;5089513;28;20193;-55
2020/12/08 07:45:44;;;;;;;16.13;14.63;;;14.80;24.50;;;;;;5094557;28;20158;-53
2020/12/08 07:48:16;;;;;;;15.38;13.95;;;15.20;23.90;;;;;;5093100;28;20150;-54
2020/12/08 07:50:45;;;;;;;16.05;14.55;;;15.50;23.20;;;;;;5093479;28;20158;-53
2020/12/08 07:53:12;;;;;;;15.93;14.32;;;15.80;22.70;;;;;;5093477;28;20235;-53
2020/12/08 07:55:43;;;;;;;13.90;12.70;;;16.10;22.00;;;;;;5093454;28;20173;-54
2020/12/08 07:58:09;;;;;;;12.82;11.63;;;16.30;21.60;;;;;;5052779;28;20749;-54
2020/12/08 08:00:35;;;;;;;15.07;13.57;;;16.40;21.40;;;;;;5066715;28;20205;-54
2020/12/08 08:03:01;;;;;;;12.52;11.38;;;16.60;20.90;;;;;;5061729;28;20197;-55
2020/12/08 08:05:26;;;;;;;11.60;10.70;;;16.70;20.50;;;;;;5067908;28;20561;-54
2020/12/08 08:07:52;;;;;;;11.40;10.43;;;16.90;20.20;;;;;;5053345;28;20200;-53
2020/12/08 08:10:20;;;;;;;11.53;10.40;;;17.10;19.90;;;;;;5063218;28;20180;-52
2020/12/08 08:12:46;;;;;;;10.50;9.50;;;17.20;20.00;;;;;;5067253;28;20185;-53
2020/12/08 08:15:12;;;;;;;8.13;7.30;;;17.40;20.30;;;;;;5059675;28;20681;-54
2020/12/08 08:17:41;;;;;;;9.20;8.30;;;17.50;20.40;;;;;;5031854;28;20271;-53
2020/12/08 08:20:07;;;;;;;6.82;6.10;;;17.60;20.40;;;;;;5068280;28;20201;-53
2020/12/08 08:22:33;;;;;;;8.45;7.68;;;17.80;20.50;;;;;;5014867;28;21492;-53
2020/12/08 08:24:59;;;;;;;7.25;6.53;;;17.90;20.40;;;;;;5031547;28;20304;-55
2020/12/08 08:27:25;;;;;;;6.30;5.70;;;18.00;20.40;;;;;;5055847;28;20177;-53
2020/12/08 08:29:51;;;;;;;6.27;5.77;;;18.10;20.50;;;;;;5044947;28;20416;-55
2020/12/08 08:32:17;;;;;;;5.88;5.47;;;18.20;20.50;;;;;;5041290;28;20462;-54
2020/12/08 08:34:43;;;;;;;6.63;6.13;;;18.30;20.50;;;;;;5053526;28;20581;-56
2020/12/08 08:37:08;;;;;;;5.33;4.93;;;18.30;20.60;;;;;;5044699;28;20677;-54
2020/12/08 08:39:34;;;;;;;4.93;4.43;;;18.40;20.70;;;;;;5044449;28;20211;-54
2020/12/08 08:42:00;;;;;;;5.30;4.90;;;18.50;20.70;;;;;;5061203;28;20173;-55
2020/12/08 08:44:25;;;;;;;4.63;4.33;;;18.50;20.70;;;;;;5056280;28;20177;-55
2020/12/08 08:46:51;;;;;;;5.30;4.90;;;18.60;20.80;;;;;;5055702;28;20165;-53
2020/12/08 08:49:17;;;;;;;4.70;4.30;;;18.60;20.80;;;;;;5040804;28;20230;-51
2020/12/08 08:51:47;;;;;;;5.13;4.73;;;18.70;20.80;;;;;;5055138;28;20234;-51
2020/12/08 08:54:15;;;;;;;4.93;4.55;;;18.80;20.80;;;;;;5054991;28;20185;-52
2020/12/08 08:56:41;;;;;;;4.88;4.45;;;18.80;20.80;;;;;;5062586;28;20201;-52
2020/12/08 08:59:07;;;;;;;4.30;4.00;;;18.80;20.90;;;;;;5055837;28;20700;-52
2020/12/08 09:01:33;;;;;;;3.70;3.40;;;18.90;20.90;;;;;;5034965;28;20247;-53
2020/12/08 09:03:59;;;;;;;7.43;4.35;;;18.90;20.90;;;;;;5061845;28;20217;-53
2020/12/08 09:06:25;;;;;;;4.65;4.35;;;19.00;20.70;;;;;;5052612;28;20181;-53
2020/12/08 09:08:51;;;;;;;3.95;3.65;;;19.00;20.60;;;;;;5029189;28;20213;-53
2020/12/08 09:11:18;;;;;;;3.88;3.58;;;19.10;20.70;;;;;;5061810;28;20227;-57
2020/12/08 09:13:44;;;;;;;4.65;4.15;;;19.10;20.90;;;;;;5065785;28;20260;-54
2020/12/08 09:16:10;;;;;;;3.80;3.60;;;19.10;20.90;;;;;;5064358;28;20189;-54
2020/12/08 09:18:36;;;;;;;4.40;4.10;;;19.20;21.00;;;;;;5053378;28;20173;-53
2020/12/08 09:21:02;;;;;;;5.68;4.05;;;19.20;20.90;;;;;;5066959;28;20461;-53
2020/12/08 09:23:28;;;;;;;4.13;3.58;;;19.30;21.60;;;;;;5060112;28;20166;-53
2020/12/08 09:25:54;;;;;;;3.80;3.50;;;19.20;21.00;;;;;;5059512;28;20178;-52
2020/12/08 09:28:25;;;;;;;4.22;3.92;;;19.30;21.00;;;;;;5057233;28;20193;-53
2020/12/08 09:30:52;;;;;;;4.60;4.15;;;19.30;21.10;;;;;;5061191;28;20210;-53
2020/12/08 09:33:18;;;;;;;3.55;3.25;;;19.30;21.10;;;;;;5073692;28;20228;-56
2020/12/08 09:35:43;;;;;;;4.17;3.30;;;19.20;21.00;;;;;;5064018;28;20257;-56
2020/12/08 09:38:09;;;;;;;4.03;3.73;;;19.30;21.10;;;;;;5051900;28;20177;-56
2020/12/08 09:40:37;;;;;;;3.38;3.17;;;19.30;21.10;;;;;;5065191;28;20932;-54
2020/12/08 09:43:03;;;;;;;3.85;3.45;;;19.40;21.30;;;;;;5069737;28;20173;-54
2020/12/08 09:45:30;;;;;;;4.65;4.35;;;19.40;21.30;;;;;;5067363;28;20560;-54
2020/12/08 09:47:56;;;;;;;7.68;3.40;;;19.40;21.60;;;;;;5060980;28;20256;-57
2020/12/08 09:50:21;;;;;;;4.40;3.70;;;19.40;21.60;;;;;;5064505;28;20169;-55
2020/12/08 09:52:47;;;;;;;4.20;3.90;;;19.40;21.60;;;;;;5071684;28;20942;-55
2020/12/08 09:55:13;;;;;;;4.00;3.70;;;19.40;21.60;;;;;;5065178;28;20170;-54
2020/12/08 09:57:39;;;;;;;3.87;3.30;;;19.40;21.50;;;;;;5068753;28;20938;-54
2020/12/08 10:00:06;;;;;;;4.50;3.08;;;19.40;21.60;;;;;;5055285;28;20197;-54
2020/12/08 10:02:33;;;;;;;3.88;3.58;;;19.50;21.70;;;;;;5074170;28;20181;-55
2020/12/08 10:04:59;;;;;;;4.07;3.25;;;19.50;21.80;;;;;;5047228;28;20708;-55
2020/12/08 10:07:25;;;;;;;3.60;3.30;;;19.50;21.80;;;;;;5060778;28;20182;-59
2020/12/08 10:09:52;;;;;;;4.25;3.88;;;19.50;21.70;;;;;;5062402;28;20162;-54
2020/12/08 10:12:18;;;;;;;5.10;4.70;;;19.30;21.40;;;;;;5071278;28;20186;-57
2020/12/08 10:14:48;;;;;;;4.30;3.95;;;19.40;21.80;;;;;;5066271;28;21736;-55
2020/12/08 10:17:15;;;;;;;3.92;3.63;;;19.40;22.30;;;;;;5070646;28;20186;-54
2020/12/08 10:19:42;;;;;;;6.47;3.40;;;19.40;22.30;;;;;;5054003;28;20584;-52
2020/12/08 10:22:08;;;;;;;9.60;3.95;;;19.40;22.30;;;;;;5072709;28;20154;-54
2020/12/08 10:24:34;;;;;;;5.50;3.87;;;19.50;22.50;;;;;;5073490;28;20212;-53
2020/12/08 10:27:00;;;;;;;4.70;3.10;;;19.50;22.40;;;;;;5064988;28;20184;-53
2020/12/08 10:29:25;;;;;;;3.77;3.47;;;19.50;22.50;;;;;;5035250;28;20205;-55
2020/12/08 10:31:52;;;;;;;3.30;3.10;;;19.60;22.40;;;;;;5070996;28;20426;-55
2020/12/08 10:34:19;;;;;;;3.50;3.20;;;19.60;22.10;;;;;;5060807;28;20443;-55
2020/12/08 10:36:47;;;;;;;3.80;3.50;;;19.60;21.90;;;;;;5063419;28;20264;-52
2020/12/08 10:39:13;;;;;;;4.20;3.80;;;19.60;21.90;;;;;;5053825;28;20170;-53
2020/12/08 10:41:39;;;;;;;3.90;3.60;;;19.60;21.90;;;;;;5075672;28;20197;-54
2020/12/08 10:44:06;;;;;;;3.67;3.35;;;19.60;21.90;;;;;;5063895;28;20692;-53
2020/12/08 10:46:33;;;;;;;5.45;3.78;;;19.60;21.90;;;;;;5063217;28;20730;-53
2020/12/08 10:48:59;;;;;;;3.65;3.45;;;19.60;21.90;;;;;;5048921;28;20166;-53
2020/12/08 10:51:25;;;;;;;5.20;3.83;;;19.70;21.90;;;;;;5064066;28;20294;-54
2020/12/08 10:53:51;;;;;;;4.33;3.70;;;19.70;22.00;;;;;;5064225;28;20193;-55
2020/12/08 10:56:24;;;;;;;3.75;3.45;;;19.70;22.00;;;;;;5066414;28;20272;-54
2020/12/08 10:58:51;;;;;;;3.50;3.20;;;19.70;22.10;;;;;;5054480;28;20196;-55
2020/12/08 11:01:25;;;;;;;4.38;3.65;;;19.70;22.10;;;;;;5065178;28;20766;-54
2020/12/08 11:03:53;;;;;;;4.70;3.67;;;19.70;22.10;;;;;;5064988;28;20256;-53
2020/12/08 11:06:24;;;;;;;4.00;3.30;;;19.70;22.20;;;;;;5067159;28;20773;-54
2020/12/08 11:08:51;;;;;;;3.80;3.50;;;19.60;22.10;;;;;;5053078;28;20174;-54
2020/12/08 11:11:28;;;;;;;5.50;2.97;;;19.70;22.10;;;;;;5067570;28;20203;-53
2020/12/08 11:13:58;;;;;;;3.67;3.38;;;19.70;22.10;;;;;;5068558;28;20655;-52
2020/12/08 11:16:25;;;;;;;2.80;2.60;;;19.70;22.10;;;;;;5059951;28;20181;-53
2020/12/08 11:18:51;;;;;;;4.00;3.70;;;19.80;22.20;;;;;;5053843;28;20169;-52
2020/12/08 11:21:28;;;;;;;3.42;3.15;;;19.70;22.10;;;;;;5048937;28;20239;-54
2020/12/08 11:23:54;;;;;;;5.43;3.55;;;19.80;22.20;;;;;;5033166;28;20249;-53
2020/12/08 11:26:24;;;;;;;4.15;3.58;;;19.80;22.30;;;;;;5061110;28;20169;-54
2020/12/08 11:28:51;;;;;;;3.85;3.50;;;19.80;22.30;;;;;;5034857;28;20434;-54
2020/12/08 11:31:17;;;;;;;5.32;3.15;;;19.80;22.30;;;;;;5062367;28;20165;-55
2020/12/08 11:33:45;;;;;;;3.20;2.90;;;19.80;22.20;;;;;;5050068;28;20189;-55
2020/12/08 11:36:11;;;;;;;3.80;3.50;;;19.80;22.10;;;;;;5038102;28;21091;-54
2020/12/08 11:38:37;;;;;;;3.40;3.10;;;19.80;22.00;;;;;;5045638;28;20178;-55
2020/12/08 11:41:04;;;;;;;3.87;3.10;;;19.80;21.90;;;;;;5048003;28;20266;-55
2020/12/08 11:43:31;;;;;;;3.80;3.38;;;19.30;21.40;;;;;;5049800;28;20258;-54
2020/12/08 11:45:57;;;;;;;7.20;4.03;;;19.90;22.00;;;;;;5058341;28;20219;-55
2020/12/08 11:48:23;;;;;;;5.00;3.50;;;19.90;22.20;;;;;;5047052;28;20505;-54
2020/12/08 11:50:50;;;;;;;3.42;3.13;;;19.90;22.20;;;;;;5058882;28;20189;-55
2020/12/08 11:53:16;;;;;;;6.20;3.58;;;19.90;22.30;;;;;;5049801;28;20216;-55
2020/12/08 11:55:41;;;;;;;4.85;3.28;;;19.90;22.30;;;;;;5056255;28;20292;-55
2020/12/08 11:58:07;;;;;;;3.27;3.07;;;20.70;22.90;;;;;;5044002;28;20588;-54
2020/12/08 12:00:33;;;;;;;4.33;3.60;;;20.00;22.40;;;;;;5055767;28;20197;-54
2020/12/08 12:02:59;;;;;;;3.25;2.95;;;20.00;22.20;;;;;;5058731;28;20162;-55
2020/12/08 12:05:25;;;;;;;3.60;3.30;;;20.00;22.00;;;;;;5050620;28;20201;-54
2020/12/08 12:07:50;;;;;;;3.40;3.20;;;20.00;22.00;;;;;;5039569;28;20563;-54
2020/12/08 12:10:16;;;;;;;3.47;3.20;;;20.00;21.90;;;;;;5041924;28;20515;-53
2020/12/08 12:12:42;;;;;;;3.30;3.00;;;20.00;21.90;;;;;;5059596;28;21381;-55
2020/12/08 12:15:08;;;;;;;4.50;3.87;;;20.00;22.00;;;;;;5050373;28;20569;-55
2020/12/08 12:17:33;;;;;;;3.53;3.23;;;20.00;22.10;;;;;;5059428;28;20178;-54
2020/12/08 12:19:59;;;;;;;4.57;3.30;;;20.00;22.20;;;;;;5037002;28;20198;-57
2020/12/08 12:22:26;;;;;;;3.43;2.97;;;20.00;22.30;;;;;;5047732;28;20584;-57
2020/12/08 12:24:53;;;;;;;5.80;3.90;;;20.00;22.30;;;;;;5054735;28;20419;-55
2020/12/08 12:27:19;;;;;;;4.25;3.17;;;20.00;22.30;;;;;;5058983;28;20166;-54
2020/12/08 12:29:44;;;;;;;4.07;3.33;;;20.00;22.50;;;;;;5043772;28;20162;-55
2020/12/08 12:32:10;;;;;;;3.43;3.13;;;20.00;22.50;;;;;;5065310;28;20348;-55
2020/12/08 12:34:36;;;;;;;3.97;3.57;;;20.00;22.50;;;;;;5050205;28;20216;-55
2020/12/08 12:37:02;;;;;;;3.77;3.47;;;20.00;22.60;;;;;;5047690;28;22230;-56
2020/12/08 12:39:28;;;;;;;3.50;3.08;;;20.00;22.60;;;;;;5015327;28;20209;-54
2020/12/08 12:41:53;;;;;;;3.93;2.80;;;20.00;22.60;;;;;;5051225;28;20397;-55
2020/12/08 12:44:19;;;;;;;3.57;3.27;;;20.00;22.60;;;;;;5063876;28;20196;-55
2020/12/08 12:46:49;;;;;;;3.30;3.10;;;20.00;22.60;;;;;;5054889;28;20185;-56